Neverland — IBCT — position and weather

sailwx.info

Track history (hours):
 
Tides and Currents Weather Stations Pressure Air Temp Water Temp Dewpoint Dewpoint Depression Visibility Wind Speed Wind Dir Waves Ship Positions

Neverland

Last reported at 2018-Jan-11 20:48 UTC. Time now 2018-Jan-20 23:18 UTC.
Position N 36°03' W 006°31'.
Warning: this ship's position is 9 days out of date.

Length 239 m; draft 12.9 m.

Type: Ship (hazmat cat D). MMSI: 247148700.

Date/timePositionNaut miles runAvg speedWind from/ knotsBaromVisibWave heightAir tempDewpointWater temp
2018-Jan-11 20:48N 36°03' W 006°31'411.2
2018-Jan-11 20:28N 36°01' W 006°28'611.1
2018-Jan-11 19:57N 35°59' W 006°21'511.9
2018-Jan-11 19:30N 35°58' W 006°15'611.3
2018-Jan-11 18:59N 35°58' W 006°08'611.4
2018-Jan-11 18:26N 35°58' W 005°60'510.5
2018-Jan-11 17:58N 35°58' W 005°54'510.7
2018-Jan-11 17:30N 35°58' W 005°48'511.0
2018-Jan-11 17:00N 35°58' W 005°41'5 9.5
2018-Jan-11 16:30N 35°59' W 005°35'4 8.4
2018-Jan-11 16:00N 35°60' W 005°30'4 7.8
2018-Jan-11 15:30N 36°01' W 005°25'4 7.8
2018-Jan-11 15:00N 36°02' W 005°21'4 8.2
2018-Jan-11 14:30N 36°02' W 005°16'5 9.4
2018-Jan-11 13:58N 36°03' W 005°09'910.1
2018-Jan-11 13:05N 36°05' W 004°59'1 9.8
2018-Jan-11 13:00N 36°05' W 004°58'5 9.6
2018-Jan-11 12:30N 36°05' W 004°52'510.4
2018-Jan-11 12:00N 36°06' W 004°45'510.3
2018-Jan-11 11:30N 36°07' W 004°39'510.4
2018-Jan-11 11:00N 36°08' W 004°33'1010.2
2018-Jan-11 10:03N 36°09' W 004°21'110.8
2018-Jan-11 10:00N 36°10' W 004°20'710.3
2018-Jan-11 09:22N 36°11' W 004°12'16710.0
2018-Jan-10 16:41N 36°46' W 000°50'211.5
2018-Jan-10 16:28N 36°47' W 000°47'611.4
2018-Jan-10 15:57N 36°48' W 000°40'59411.5
2018-Jan-08 12:16N 37°10' E 011°43'312.4
2018-Jan-08 12:00N 37°08' E 011°46'712.3
2018-Jan-08 11:28N 37°04' E 011°53'612.5
2018-Jan-08 11:00N 37°01' E 011°59'612.8
2018-Jan-08 10:30N 36°57' E 012°05'612.4
2018-Jan-08 10:00N 36°54' E 012°12'612.1
2018-Jan-08 09:30N 36°51' E 012°18'711.9
2018-Jan-08 08:57N 36°47' E 012°25'511.9
2018-Jan-08 08:30N 36°43' E 012°30'612.2
2018-Jan-08 08:00N 36°39' E 012°35'612.1
2018-Jan-08 07:30N 36°35' E 012°41'612.0
2018-Jan-08 07:00N 36°31' E 012°46'612.0
2018-Jan-08 06:30N 36°26' E 012°51'612.2
2018-Jan-08 06:00N 36°22' E 012°56'611.9
2018-Jan-08 05:30N 36°17' E 013°01'612.2
2018-Jan-08 05:00N 36°13' E 013°06'612.5
2018-Jan-08 04:30N 36°08' E 013°10'1712.3
2018-Jan-08 03:05N 35°54' E 013°24'112.4
2018-Jan-08 02:59N 35°53' E 013°25'912.0
2018-Jan-08 02:16N 35°47' E 013°32'3712.0
2018-Jan-07 23:12N 35°18' E 014°00'311.8
2018-Jan-07 22:58N 35°16' E 014°02'611.7
2018-Jan-07 22:30N 35°12' E 014°07'611.9
2018-Jan-07 22:00N 35°07' E 014°11'612.0
2018-Jan-07 21:30N 35°02' E 014°16'712.3
2018-Jan-07 20:55N 34°57' E 014°21'512.0
2018-Jan-07 20:30N 34°53' E 014°26'2112.4
2018-Jan-07 18:48N 34°37' E 014°42'412.8
2018-Jan-07 18:29N 34°34' E 014°45'613.1
2018-Jan-07 18:00N 34°29' E 014°50'713.4
2018-Jan-07 17:30N 34°23' E 014°55'713.4
2018-Jan-07 17:00N 34°18' E 014°60'3312.8
2018-Jan-07 14:27N 33°53' E 015°25'14912.6
2018-Jan-07 02:39N 31°59' E 017°18'212.5
2018-Jan-07 02:28N 31°58' E 017°20'  
Track history (hours):
 
Tides and Currents Weather Stations Pressure Air Temp Water Temp Dewpoint Dewpoint Depression Visibility Wind Speed Wind Dir Waves Ship Positions

Neverland

Last reported at 2018-Jan-11 20:48 UTC. Time now 2018-Jan-20 23:18 UTC.
Position N 36°03' W 006°31'.
Warning: this ship's position is 9 days out of date.

Length 239 m; draft 12.9 m.

Type: Ship (hazmat cat D). MMSI: 247148700.

Date/timePositionNaut miles runAvg speedWind from/ knotsBaromVisibWave heightAir tempDewpointWater temp
2018-Jan-11 20:48N 36°03' W 006°31'411.2
2018-Jan-11 20:28N 36°01' W 006°28'611.1
2018-Jan-11 19:57N 35°59' W 006°21'511.9
2018-Jan-11 19:30N 35°58' W 006°15'611.3
2018-Jan-11 18:59N 35°58' W 006°08'611.4
2018-Jan-11 18:26N 35°58' W 005°60'510.5
2018-Jan-11 17:58N 35°58' W 005°54'510.7
2018-Jan-11 17:30N 35°58' W 005°48'511.0
2018-Jan-11 17:00N 35°58' W 005°41'5 9.5
2018-Jan-11 16:30N 35°59' W 005°35'4 8.4
2018-Jan-11 16:00N 35°60' W 005°30'4 7.8
2018-Jan-11 15:30N 36°01' W 005°25'4 7.8
2018-Jan-11 15:00N 36°02' W 005°21'4 8.2
2018-Jan-11 14:30N 36°02' W 005°16'5 9.4
2018-Jan-11 13:58N 36°03' W 005°09'910.1
2018-Jan-11 13:05N 36°05' W 004°59'1 9.8
2018-Jan-11 13:00N 36°05' W 004°58'5 9.6
2018-Jan-11 12:30N 36°05' W 004°52'510.4
2018-Jan-11 12:00N 36°06' W 004°45'510.3
2018-Jan-11 11:30N 36°07' W 004°39'510.4
2018-Jan-11 11:00N 36°08' W 004°33'1010.2
2018-Jan-11 10:03N 36°09' W 004°21'110.8
2018-Jan-11 10:00N 36°10' W 004°20'710.3
2018-Jan-11 09:22N 36°11' W 004°12'16710.0
2018-Jan-10 16:41N 36°46' W 000°50'211.5
2018-Jan-10 16:28N 36°47' W 000°47'611.4
2018-Jan-10 15:57N 36°48' W 000°40'59411.5
2018-Jan-08 12:16N 37°10' E 011°43'312.4
2018-Jan-08 12:00N 37°08' E 011°46'712.3
2018-Jan-08 11:28N 37°04' E 011°53'612.5
2018-Jan-08 11:00N 37°01' E 011°59'612.8
2018-Jan-08 10:30N 36°57' E 012°05'612.4
2018-Jan-08 10:00N 36°54' E 012°12'612.1
2018-Jan-08 09:30N 36°51' E 012°18'711.9
2018-Jan-08 08:57N 36°47' E 012°25'511.9
2018-Jan-08 08:30N 36°43' E 012°30'612.2
2018-Jan-08 08:00N 36°39' E 012°35'612.1
2018-Jan-08 07:30N 36°35' E 012°41'612.0
2018-Jan-08 07:00N 36°31' E 012°46'612.0
2018-Jan-08 06:30N 36°26' E 012°51'612.2
2018-Jan-08 06:00N 36°22' E 012°56'611.9
2018-Jan-08 05:30N 36°17' E 013°01'612.2
2018-Jan-08 05:00N 36°13' E 013°06'612.5
2018-Jan-08 04:30N 36°08' E 013°10'1712.3
2018-Jan-08 03:05N 35°54' E 013°24'112.4
2018-Jan-08 02:59N 35°53' E 013°25'912.0
2018-Jan-08 02:16N 35°47' E 013°32'3712.0
2018-Jan-07 23:12N 35°18' E 014°00'311.8
2018-Jan-07 22:58N 35°16' E 014°02'611.7
2018-Jan-07 22:30N 35°12' E 014°07'611.9
2018-Jan-07 22:00N 35°07' E 014°11'612.0
2018-Jan-07 21:30N 35°02' E 014°16'712.3
2018-Jan-07 20:55N 34°57' E 014°21'512.0
2018-Jan-07 20:30N 34°53' E 014°26'2112.4
2018-Jan-07 18:48N 34°37' E 014°42'412.8
2018-Jan-07 18:29N 34°34' E 014°45'613.1
2018-Jan-07 18:00N 34°29' E 014°50'713.4
2018-Jan-07 17:30N 34°23' E 014°55'713.4
2018-Jan-07 17:00N 34°18' E 014°60'3312.8
2018-Jan-07 14:27N 33°53' E 015°25'14912.6
2018-Jan-07 02:39N 31°59' E 017°18'212.5
2018-Jan-07 02:28N 31°58' E 017°20'  

Dump ship's entire track history